Time;durP1;ratioP1;P1;durP2;ratioP2;P2;SDS_P1;SDS_P2;PMS_P1;PMS_P2;Temp;Humidity;BMP_temperature;BMP_pressure;BME280_temperature;BME280_humidity;BME280_pressure;Samples;Min_cycle;Max_cycle;Signal;HPM_P1;HPM_P2
2023/01/01 01:29:20;;;;;;;4.78;2.55;;;13.20;99.90;;;;;;1955255;72;22257;-94
2023/01/01 01:32:13;;;;;;;7.33;3.75;;;13.30;99.90;;;;;;1892358;75;21112;-94
2023/01/01 01:35:07;;;;;;;7.65;5.62;;;13.30;99.90;;;;;;1873566;76;21095;-92
2023/01/01 01:37:59;;;;;;;8.58;6.17;;;13.10;99.90;;;;;;1881856;75;21088;-92
2023/01/01 01:40:51;;;;;;;9.33;6.17;;;12.70;99.90;;;;;;1894042;75;21051;-93
2023/01/01 01:43:57;;;;;;;11.45;6.58;;;12.40;99.90;;;;;;1880262;75;21102;-93
2023/01/01 01:49:34;;;;;;;9.88;7.15;;;12.00;99.90;;;;;;1954983;72;22404;-93
2023/01/01 02:14:28;;;;;;;10.35;7.37;;;11.60;99.90;;;;;;1954403;72;22157;-93
2023/01/01 02:17:23;;;;;;;11.63;7.20;;;11.50;99.90;;;;;;1921609;74;21155;-93
2023/01/01 02:20:26;;;;;;;10.20;6.90;;;11.50;99.90;;;;;;1939183;74;21080;-93
2023/01/01 02:23:56;;;;;;;11.10;7.00;;;11.40;99.90;;;;;;1930273;74;21158;-93
2023/01/01 02:27:00;;;;;;;10.28;7.95;;;11.50;99.90;;;;;;1905411;75;21111;-93
2023/01/01 02:29:55;;;;;;;11.70;6.92;;;11.40;99.90;;;;;;1905603;75;21144;-94
2023/01/01 02:32:52;;;;;;;10.38;6.80;;;11.40;99.90;;;;;;1905603;75;21221;-94
2023/01/01 02:35:47;;;;;;;9.25;6.87;;;11.40;99.90;;;;;;1905088;75;21101;-93
2023/01/01 02:38:43;;;;;;;8.78;6.65;;;11.40;99.90;;;;;;1905472;75;21113;-93
2023/01/01 02:41:42;;;;;;;10.85;6.42;;;11.30;99.90;;;;;;1905599;75;21171;-93
2023/01/01 02:47:20;;;;;;;9.33;6.45;;;11.20;99.90;;;;;;1943203;72;22293;-90
2023/01/01 02:50:15;;;;;;;8.65;5.87;;;11.20;99.90;;;;;;1898571;75;21128;-89
2023/01/01 02:53:15;;;;;;;8.50;6.42;;;11.10;99.90;;;;;;1899084;75;21157;-93
2023/01/01 02:56:10;;;;;;;8.35;6.58;;;11.00;99.90;;;;;;1884486;76;21054;-92
2023/01/01 03:02:32;;;;;;;8.30;6.37;;;11.00;99.90;;;;;;1901572;75;21056;-92
2023/01/01 03:08:12;;;;;;;8.65;6.53;;;10.90;99.90;;;;;;1944620;72;22229;-91
2023/01/01 03:11:08;;;;;;;10.03;7.33;;;10.90;99.90;;;;;;1919957;73;21133;-91
2023/01/01 03:17:25;;;;;;;9.13;6.65;;;10.80;99.90;;;;;;1997340;71;22150;-90
2023/01/01 03:20:20;;;;;;;9.55;6.83;;;10.70;99.90;;;;;;1970499;72;21064;-88
2023/01/01 03:23:14;;;;;;;9.38;6.78;;;10.70;99.90;;;;;;2050416;69;21112;-88
2023/01/01 03:26:10;;;;;;;9.58;7.05;;;10.60;99.90;;;;;;2038368;69;21558;-92
2023/01/01 03:29:04;;;;;;;10.28;6.60;;;10.60;99.90;;;;;;2033221;70;21040;-92
2023/01/01 03:31:59;;;;;;;10.15;6.58;;;10.60;99.90;;;;;;2031907;70;21092;-92
2023/01/01 03:34:54;;;;;;;10.18;7.30;;;10.60;99.90;;;;;;2045006;69;21065;-91
2023/01/01 03:37:49;;;;;;;10.93;5.78;;;10.60;99.90;;;;;;2032006;70;21155;-93
2023/01/01 03:40:42;;;;;;;7.92;6.00;;;10.60;99.90;;;;;;2035225;70;21062;-91
2023/01/01 03:43:40;;;;;;;10.50;6.42;;;10.50;99.90;;;;;;2041206;69;21104;-91
2023/01/01 03:46:35;;;;;;;8.70;6.03;;;10.50;99.90;;;;;;2032408;70;21576;-92
2023/01/01 03:53:00;;;;;;;11.10;6.17;;;10.50;99.90;;;;;;1941695;74;22197;-94
2023/01/01 03:55:55;;;;;;;7.47;5.50;;;10.50;99.90;;;;;;1929084;73;21096;-93
2023/01/01 03:58:51;;;;;;;8.28;5.83;;;10.40;99.90;;;;;;1952335;73;21080;-94
2023/01/01 04:01:45;;;;;;;9.68;5.97;;;10.40;99.90;;;;;;1919396;73;21106;-92
2023/01/01 04:19:05;;;;;;;7.70;5.60;;;10.40;99.90;;;;;;1931777;73;22365;-93
2023/01/01 04:21:57;;;;;;;10.00;6.28;;;10.30;99.90;;;;;;1871801;74;21201;-90
2023/01/01 04:24:49;;;;;;;7.00;5.50;;;10.30;99.90;;;;;;1930285;73;21111;-92
2023/01/01 04:27:41;;;;;;;8.55;6.20;;;10.30;99.90;;;;;;1906022;73;21134;-92
2023/01/01 04:30:33;;;;;;;7.42;5.80;;;10.30;99.90;;;;;;1913007;74;21212;-92
2023/01/01 04:36:10;;;;;;;7.10;5.45;;;10.40;99.90;;;;;;1969137;72;22636;-93
2023/01/01 04:39:01;;;;;;;6.08;4.90;;;10.40;99.90;;;;;;1919909;73;21581;-92
2023/01/01 04:41:53;;;;;;;9.10;5.58;;;10.30;99.90;;;;;;1917073;75;21111;-93
2023/01/01 04:44:44;;;;;;;7.95;5.37;;;10.30;99.90;;;;;;1931424;73;21582;-93
2023/01/01 04:47:36;;;;;;;8.28;5.62;;;10.30;99.90;;;;;;1917743;73;21051;-92
2023/01/01 04:50:30;;;;;;;10.53;5.15;;;10.30;99.90;;;;;;1924589;73;21132;-93
2023/01/01 04:53:22;;;;;;;6.60;5.33;;;10.30;99.90;;;;;;1922558;73;21058;-93
2023/01/01 04:59:53;;;;;;;7.47;5.20;;;10.40;99.90;;;;;;2071901;68;22162;-94
2023/01/01 05:05:28;;;;;;;6.85;4.62;;;10.50;99.90;;;;;;1936077;72;22178;-93
2023/01/01 05:08:19;;;;;;;9.53;5.10;;;10.50;99.90;;;;;;1946737;73;21077;-93
2023/01/01 05:11:13;;;;;;;7.42;5.03;;;10.50;99.90;;;;;;1942191;73;21042;-91
2023/01/01 05:14:06;;;;;;;6.65;4.65;;;10.50;99.90;;;;;;1937740;73;21082;-94
2023/01/01 05:16:58;;;;;;;7.50;5.12;;;10.40;99.90;;;;;;1941287;73;21089;-91
2023/01/01 05:38:14;;;;;;;10.72;5.50;;;10.00;99.90;;;;;;1946528;72;22193;-92
2023/01/01 05:41:08;;;;;;;8.13;5.75;;;10.00;99.90;;;;;;1909884;74;21098;-91
2023/01/01 05:44:01;;;;;;;8.40;5.70;;;10.00;99.90;;;;;;1927570;74;21377;-91
2023/01/01 06:00:30;;;;;;;7.15;5.10;;;9.90;99.90;;;;;;1901790;75;22238;-92
2023/01/01 06:03:22;;;;;;;7.03;5.40;;;9.90;99.90;;;;;;1882424;76;21081;-92
2023/01/01 06:08:56;;;;;;;7.85;5.30;;;9.80;99.90;;;;;;1945280;72;22262;-93
2023/01/01 06:15:02;;;;;;;7.55;4.35;;;10.00;99.90;;;;;;2042237;69;22245;-93
2023/01/01 06:17:53;;;;;;;7.60;5.30;;;10.10;99.90;;;;;;1998037;70;21237;-93
2023/01/01 06:24:01;;;;;;;8.43;7.17;;;10.20;99.90;;;;;;1964002;71;27945;-92
2023/01/01 06:26:53;;;;;;;7.22;5.40;;;10.30;99.90;;;;;;2007362;70;21130;-93
2023/01/01 06:29:44;;;;;;;11.78;5.53;;;10.40;99.90;;;;;;2015011;70;21123;-93
2023/01/01 06:32:36;;;;;;;9.40;5.95;;;10.40;99.90;;;;;;1999317;70;21078;-91
2023/01/01 06:35:28;;;;;;;9.35;5.70;;;10.20;99.90;;;;;;2010535;70;21161;-92
2023/01/01 06:41:05;;;;;;;10.65;5.60;;;10.00;99.90;;;;;;1935407;72;22162;-93
2023/01/01 06:44:00;;;;;;;8.35;5.37;;;9.90;99.90;;;;;;1898133;75;21146;-91
2023/01/01 06:46:52;;;;;;;8.40;5.78;;;9.90;99.90;;;;;;1907830;75;21469;-91
2023/01/01 06:52:32;;;;;;;7.87;5.50;;;9.90;99.90;;;;;;1940861;72;22147;-92
2023/01/01 06:55:25;;;;;;;7.83;5.85;;;9.90;99.90;;;;;;1933150;73;21160;-91
2023/01/01 07:01:39;;;;;;;8.05;5.70;;;9.90;99.90;;;;;;1981465;71;22186;-91
2023/01/01 07:04:32;;;;;;;10.45;5.87;;;9.80;99.90;;;;;;1971865;72;21094;-91
2023/01/01 07:07:23;;;;;;;7.00;5.85;;;9.80;99.90;;;;;;2053587;69;21046;-91
2023/01/01 07:13:10;;;;;;;8.35;5.47;;;9.70;99.90;;;;;;1949230;72;22302;-92
2023/01/01 07:16:02;;;;;;;7.70;5.50;;;9.60;99.90;;;;;;1940339;73;21156;-91
2023/01/01 07:18:57;;;;;;;9.00;5.55;;;9.70;99.90;;;;;;1937056;73;21112;-92
2023/01/01 07:21:52;;;;;;;7.58;4.87;;;9.60;99.90;;;;;;1917150;75;21106;-91
2023/01/01 07:24:44;;;;;;;7.65;5.80;;;9.80;99.90;;;;;;1917418;73;21138;-91
2023/01/01 07:27:36;;;;;;;7.78;5.72;;;9.80;99.90;;;;;;1936106;73;21094;-91
2023/01/01 07:30:27;;;;;;;11.43;6.20;;;9.70;99.90;;;;;;1934199;73;21090;-91
2023/01/01 07:36:05;;;;;;;10.32;5.83;;;9.60;99.90;;;;;;1950302;72;22240;-93
2023/01/01 07:38:58;;;;;;;6.47;5.12;;;9.60;99.90;;;;;;1939686;73;21157;-94
2023/01/01 07:44:43;;;;;;;6.08;5.22;;;9.80;99.90;;;;;;1948678;72;22288;-92
2023/01/01 07:47:36;;;;;;;8.43;5.60;;;9.80;99.90;;;;;;1941022;73;21622;-92
2023/01/01 07:50:30;;;;;;;8.73;4.75;;;9.80;99.90;;;;;;1937615;73;21095;-92
2023/01/01 07:56:09;;;;;;;9.15;5.30;;;9.80;99.90;;;;;;1935343;72;22258;-93
2023/01/01 07:59:03;;;;;;;8.08;5.50;;;9.80;99.90;;;;;;1884755;75;21097;-94
2023/01/01 08:01:55;;;;;;;9.65;5.17;;;9.80;99.90;;;;;;1893431;75;21144;-92
2023/01/01 08:04:47;;;;;;;8.35;5.40;;;9.70;99.90;;;;;;1891322;75;21092;-92
2023/01/01 08:07:43;;;;;;;8.35;5.03;;;9.80;99.90;;;;;;1882163;75;21122;-91
2023/01/01 08:10:35;;;;;;;9.68;5.12;;;10.10;99.90;;;;;;1900218;75;21082;-91
2023/01/01 08:13:27;;;;;;;10.78;5.40;;;10.30;99.90;;;;;;1890633;75;21090;-92
2023/01/01 08:16:18;;;;;;;7.58;4.62;;;10.30;99.90;;;;;;1891414;75;21095;-92
2023/01/01 08:19:10;;;;;;;7.87;5.05;;;10.30;99.90;;;;;;1885581;75;21094;-91
2023/01/01 08:22:04;;;;;;;9.08;5.20;;;10.30;99.90;;;;;;1892352;74;21096;-92
2023/01/01 08:24:56;;;;;;;7.95;4.28;;;10.30;99.90;;;;;;1885478;75;21160;-91
2023/01/01 08:27:50;;;;;;;5.60;4.20;;;10.40;99.90;;;;;;1895591;75;21622;-91
2023/01/01 08:30:41;;;;;;;5.67;4.10;;;10.70;99.90;;;;;;1876384;75;21117;-85
2023/01/01 08:33:34;;;;;;;6.40;4.20;;;10.90;99.90;;;;;;1889221;75;21111;-73
2023/01/01 08:36:26;;;;;;;5.30;4.08;;;11.00;99.90;;;;;;1898723;75;21678;-73
2023/01/01 08:39:18;;;;;;;6.55;4.12;;;11.10;99.90;;;;;;1882322;75;21067;-74
2023/01/01 08:42:09;;;;;;;7.67;4.47;;;11.10;99.90;;;;;;1884628;75;21609;-74
2023/01/01 08:45:03;;;;;;;7.00;4.30;;;11.20;99.90;;;;;;1891512;75;21550;-73
2023/01/01 08:47:55;;;;;;;6.37;4.65;;;11.20;99.90;;;;;;1873769;75;21176;-74
2023/01/01 08:50:53;;;;;;;7.78;4.20;;;11.20;99.90;;;;;;1891331;75;21114;-74
2023/01/01 08:53:45;;;;;;;6.78;3.98;;;11.30;99.90;;;;;;1881558;75;21187;-74
2023/01/01 08:56:39;;;;;;;8.58;4.60;;;11.40;99.90;;;;;;1890562;75;21601;-74
2023/01/01 08:59:30;;;;;;;6.40;3.95;;;11.60;99.90;;;;;;1887399;75;21091;-74
2023/01/01 09:02:22;;;;;;;6.50;4.28;;;11.70;99.90;;;;;;1893870;75;21095;-74
2023/01/01 09:05:15;;;;;;;9.28;4.25;;;11.70;99.90;;;;;;1896637;75;21127;-74
2023/01/01 09:08:07;;;;;;;12.30;4.90;;;11.90;99.90;;;;;;1889169;75;21515;-73
2023/01/01 09:11:01;;;;;;;8.33;4.25;;;12.00;99.90;;;;;;1878028;75;21156;-73
2023/01/01 09:13:52;;;;;;;7.50;4.00;;;12.10;99.90;;;;;;1884083;75;21151;-73
2023/01/01 09:16:44;;;;;;;7.47;4.37;;;12.20;99.90;;;;;;1895073;75;21146;-75
2023/01/01 09:19:35;;;;;;;7.03;3.92;;;12.30;99.90;;;;;;1893942;75;21090;-73
2023/01/01 09:22:27;;;;;;;7.75;4.10;;;12.20;99.90;;;;;;1866718;77;21059;-73
2023/01/01 09:25:18;;;;;;;7.85;3.85;;;12.20;99.90;;;;;;1873015;75;21103;-73
2023/01/01 09:28:12;;;;;;;6.80;3.35;;;12.20;99.90;;;;;;1879155;75;21095;-74
2023/01/01 09:31:05;;;;;;;9.98;3.52;;;12.30;99.90;;;;;;1875992;75;21114;-74
2023/01/01 09:33:56;;;;;;;8.20;3.72;;;12.30;99.90;;;;;;1883353;75;21204;-74
2023/01/01 09:36:48;;;;;;;7.53;3.27;;;12.30;99.90;;;;;;1886544;75;21167;-73
2023/01/01 09:39:40;;;;;;;10.05;3.58;;;12.30;99.90;;;;;;1887697;75;21087;-74
2023/01/01 09:42:36;;;;;;;7.70;2.83;;;12.40;99.90;;;;;;1899869;75;21101;-73
2023/01/01 09:45:30;;;;;;;7.45;3.05;;;12.60;99.90;;;;;;1879523;75;21047;-75
2023/01/01 09:48:23;;;;;;;6.35;3.05;;;12.70;99.90;;;;;;1875833;75;21537;-74
2023/01/01 09:51:18;;;;;;;6.25;3.12;;;12.70;99.90;;;;;;1885253;75;21157;-73
2023/01/01 09:54:13;;;;;;;9.15;3.22;;;12.80;99.90;;;;;;1873332;75;21099;-73
2023/01/01 09:57:09;;;;;;;5.62;2.90;;;12.90;99.90;;;;;;1897761;74;21123;-73
2023/01/01 10:00:02;;;;;;;5.65;3.00;;;13.00;99.90;;;;;;1882802;75;21253;-73
2023/01/01 10:06:06;;;;;;;9.78;3.20;;;13.10;99.90;;;;;;1957720;72;22151;-75
2023/01/01 10:09:08;;;;;;;7.55;2.90;;;13.10;99.90;;;;;;1896096;75;21181;-75
2023/01/01 10:12:03;;;;;;;9.15;2.30;;;13.20;99.90;;;;;;1895156;75;21107;-74
2023/01/01 10:14:57;;;;;;;5.35;2.90;;;13.20;99.90;;;;;;1894634;75;21155;-73
2023/01/01 10:17:52;;;;;;;5.05;2.05;;;13.40;99.90;;;;;;1914891;75;21158;-73
2023/01/01 10:20:46;;;;;;;7.72;2.85;;;13.60;99.90;;;;;;1906307;75;21156;-72
2023/01/01 10:23:41;;;;;;;5.83;2.35;;;13.80;99.90;;;;;;1897140;75;21567;-73
2023/01/01 10:29:17;;;;;;;6.40;2.45;;;13.70;99.90;;;;;;1952601;72;22165;-74
2023/01/01 10:32:20;;;;;;;7.22;3.02;;;13.70;99.90;;;;;;1915943;75;21155;-73
2023/01/01 10:35:16;;;;;;;8.83;3.10;;;13.80;99.90;;;;;;1900363;75;21594;-73
2023/01/01 10:38:07;;;;;;;5.42;2.62;;;13.90;99.90;;;;;;1895108;75;21087;-74
2023/01/01 10:41:01;;;;;;;6.00;2.40;;;14.00;99.90;;;;;;1910488;75;21094;-73
2023/01/01 10:43:53;;;;;;;3.87;1.90;;;14.10;99.90;;;;;;1905940;75;21153;-73
2023/01/01 10:46:48;;;;;;;5.62;2.20;;;14.20;99.90;;;;;;1902996;75;21090;-73
2023/01/01 10:49:55;;;;;;;5.50;2.40;;;14.30;99.90;;;;;;1898545;75;21562;-73
2023/01/01 10:52:49;;;;;;;4.55;1.90;;;14.40;99.90;;;;;;1896295;75;21097;-73
2023/01/01 10:55:40;;;;;;;5.65;1.90;;;14.50;99.90;;;;;;1894521;75;21156;-74
2023/01/01 11:01:37;;;;;;;4.83;2.40;;;14.80;99.90;;;;;;1952774;72;22619;-75
2023/01/01 11:04:28;;;;;;;7.67;2.37;;;15.00;99.90;;;;;;1883781;76;21162;-73
2023/01/01 11:07:24;;;;;;;5.83;1.80;;;15.10;99.90;;;;;;1883929;76;21113;-73
2023/01/01 11:10:20;;;;;;;3.65;1.75;;;15.20;99.90;;;;;;1891720;75;21485;-73
2023/01/01 11:13:19;;;;;;;7.42;2.00;;;15.20;99.90;;;;;;1894460;75;21125;-73
2023/01/01 11:16:12;;;;;;;3.47;1.57;;;15.30;99.90;;;;;;1895788;75;21513;-74
2023/01/01 11:19:05;;;;;;;6.42;1.80;;;15.30;99.90;;;;;;1900891;75;21039;-73
2023/01/01 11:21:56;;;;;;;6.55;1.90;;;15.40;99.90;;;;;;1895994;75;21102;-73
2023/01/01 11:24:51;;;;;;;6.90;2.10;;;15.40;99.90;;;;;;1894650;75;21067;-73
2023/01/01 11:27:43;;;;;;;4.85;1.37;;;15.60;99.90;;;;;;1892678;75;21148;-73
2023/01/01 11:30:34;;;;;;;2.98;1.02;;;15.60;99.90;;;;;;1903178;75;21148;-73
2023/01/01 11:33:27;;;;;;;5.10;1.67;;;15.70;99.90;;;;;;1903269;75;21638;-73
2023/01/01 11:36:27;;;;;;;5.25;1.77;;;15.90;99.90;;;;;;1906216;75;21115;-73
2023/01/01 11:39:25;;;;;;;6.95;1.92;;;15.80;99.90;;;;;;1889210;75;21091;-73
2023/01/01 11:42:23;;;;;;;8.20;1.72;;;15.70;99.90;;;;;;1894488;75;21098;-73
2023/01/01 11:45:19;;;;;;;4.95;1.72;;;15.60;99.90;;;;;;1896887;75;21555;-73
2023/01/01 11:48:16;;;;;;;4.20;1.85;;;15.60;99.90;;;;;;1883799;75;21112;-72
2023/01/01 11:53:49;;;;;;;6.17;1.60;;;15.70;99.90;;;;;;1952244;72;22700;-74
2023/01/01 11:56:41;;;;;;;6.67;2.05;;;15.80;99.90;;;;;;1928397;73;21094;-74
2023/01/01 11:59:36;;;;;;;5.33;1.60;;;15.90;99.90;;;;;;1916956;75;21090;-73
2023/01/01 12:02:31;;;;;;;6.97;1.70;;;16.00;99.90;;;;;;1917039;75;21159;-73
2023/01/01 12:05:26;;;;;;;7.47;2.02;;;15.90;99.90;;;;;;1918293;73;21107;-73
2023/01/01 12:08:22;;;;;;;5.35;2.20;;;16.00;99.90;;;;;;1929779;73;21094;-73
2023/01/01 12:13:57;;;;;;;5.72;1.42;;;16.10;99.90;;;;;;1949133;72;22334;-72
2023/01/01 12:19:32;;;;;;;5.03;1.62;;;16.20;99.90;;;;;;1932771;72;22219;-74
2023/01/01 12:22:23;;;;;;;7.08;1.42;;;16.40;99.90;;;;;;1903918;75;21057;-74
2023/01/01 12:25:17;;;;;;;3.22;1.50;;;16.50;99.90;;;;;;1886012;75;21109;-73
2023/01/01 12:28:17;;;;;;;4.42;1.40;;;16.80;99.90;;;;;;1911907;75;21502;-72
2023/01/01 12:31:13;;;;;;;3.15;1.40;;;16.90;99.90;;;;;;1895802;75;21097;-73
2023/01/01 12:34:09;;;;;;;4.60;1.15;;;17.30;99.90;;;;;;1908308;73;21247;-73
2023/01/01 12:37:04;;;;;;;7.08;1.60;;;17.60;99.90;;;;;;1912708;74;21102;-73
2023/01/01 12:42:53;;;;;;;5.35;1.50;;;17.90;99.90;;;;;;1931108;72;22197;-74
2023/01/01 12:45:58;;;;;;;4.83;1.20;;;17.90;99.90;;;;;;1912497;74;21101;-75
2023/01/01 12:51:47;;;;;;;5.47;1.40;;;18.00;99.90;;;;;;1925796;72;22286;-74
2023/01/01 12:54:47;;;;;;;4.47;1.40;;;18.00;99.90;;;;;;1898190;75;21140;-73
2023/01/01 12:57:41;;;;;;;5.85;1.50;;;18.00;99.90;;;;;;1897775;75;21206;-72
2023/01/01 13:00:35;;;;;;;5.78;1.82;;;17.90;99.90;;;;;;1901970;74;21054;-73
2023/01/01 13:06:09;;;;;;;6.33;1.50;;;17.50;99.90;;;;;;1929544;72;22233;-73
2023/01/01 13:09:05;;;;;;;5.80;1.57;;;17.40;99.90;;;;;;1909191;75;21633;-72
2023/01/01 13:11:59;;;;;;;5.90;1.52;;;17.30;99.90;;;;;;1911840;75;21087;-73
2023/01/01 13:14:51;;;;;;;6.72;1.50;;;17.10;99.90;;;;;;1866140;75;21082;-72
2023/01/01 13:17:43;;;;;;;3.45;1.67;;;17.10;99.90;;;;;;1915135;75;21137;-72
2023/01/01 13:20:37;;;;;;;4.08;0.98;;;17.30;99.90;;;;;;1910010;75;21173;-72
2023/01/01 13:23:44;;;;;;;4.95;1.12;;;17.30;99.90;;;;;;1898932;75;21116;-72
2023/01/01 13:26:40;;;;;;;5.43;1.27;;;17.50;99.90;;;;;;1912327;75;21095;-72
2023/01/01 13:32:16;;;;;;;4.47;1.10;;;17.90;99.90;;;;;;1940300;72;22296;-74
2023/01/01 13:35:17;;;;;;;5.03;1.20;;;17.80;99.90;;;;;;1895451;75;21135;-73
2023/01/01 13:38:35;;;;;;;5.92;1.60;;;17.80;99.90;;;;;;1886645;75;21172;-73
2023/01/01 13:44:20;;;;;;;3.75;1.10;;;17.60;99.90;;;;;;1952383;72;22165;-72
2023/01/01 13:47:16;;;;;;;4.30;1.00;;;17.60;99.90;;;;;;1900943;73;21061;-73
2023/01/01 13:50:11;;;;;;;3.30;1.27;;;17.70;99.90;;;;;;1900457;75;21043;-73
2023/01/01 13:53:35;;;;;;;3.67;1.40;;;17.90;99.90;;;;;;1894191;75;21138;-73
2023/01/01 13:59:35;;;;;;;3.05;1.10;;;17.80;99.90;;;;;;1940543;72;22234;-72
2023/01/01 14:18:13;;;;;;;4.25;1.35;;;18.10;99.90;;;;;;1945912;72;22199;-74
2023/01/01 14:21:09;;;;;;;2.98;1.07;;;18.50;99.90;;;;;;1940246;73;21105;-74
2023/01/01 14:24:04;;;;;;;4.67;0.95;;;18.70;99.90;;;;;;1931459;73;21619;-74
2023/01/01 14:26:55;;;;;;;3.75;1.17;;;19.00;99.90;;;;;;1914318;73;21102;-73
2023/01/01 14:32:32;;;;;;;4.10;1.12;;;19.30;99.90;;;;;;1945110;72;22253;-73
2023/01/01 14:35:24;;;;;;;3.08;0.78;;;19.40;99.90;;;;;;1928359;73;21118;-73
2023/01/01 14:38:24;;;;;;;4.42;1.00;;;19.40;99.90;;;;;;1916620;75;21110;-73
2023/01/01 14:44:00;;;;;;;3.58;0.80;;;19.60;99.90;;;;;;1944375;72;22248;-74
2023/01/01 14:46:53;;;;;;;7.00;1.02;;;19.50;99.90;;;;;;1918655;73;21137;-73
2023/01/01 14:52:27;;;;;;;5.78;1.00;;;19.50;99.90;;;;;;1925992;72;22302;-75
2023/01/01 14:55:20;;;;;;;3.67;0.72;;;19.50;99.90;;;;;;1900723;75;21176;-74
2023/01/01 14:58:15;;;;;;;4.97;1.00;;;19.50;99.90;;;;;;1884974;75;21608;-73
2023/01/01 15:03:59;;;;;;;3.72;1.12;;;19.60;99.10;;;;;;1929079;72;22145;-72
2023/01/01 15:06:55;;;;;;;2.47;0.70;;;19.50;98.60;;;;;;1913600;74;21130;-73
2023/01/01 15:12:28;;;;;;;3.83;0.90;;;19.50;97.60;;;;;;1932624;72;22288;-73
2023/01/01 15:15:44;;;;;;;3.77;0.82;;;19.50;97.40;;;;;;1906172;75;21096;-72
2023/01/01 15:18:44;;;;;;;5.35;1.00;;;19.40;96.70;;;;;;1908663;74;21059;-73
2023/01/01 15:21:40;;;;;;;5.08;1.15;;;19.50;96.30;;;;;;1904130;75;21552;-73
2023/01/01 15:24:32;;;;;;;4.00;1.05;;;19.40;95.80;;;;;;1908749;75;21164;-73
2023/01/01 15:27:26;;;;;;;6.47;1.27;;;19.50;95.80;;;;;;1916041;75;21173;-73
2023/01/01 15:33:11;;;;;;;3.80;0.80;;;19.40;95.40;;;;;;1947481;72;22151;-74
2023/01/01 15:36:02;;;;;;;8.20;1.10;;;19.40;95.20;;;;;;1902188;74;21107;-73
2023/01/01 15:38:54;;;;;;;2.83;0.80;;;19.30;95.60;;;;;;1887064;75;21210;-72
2023/01/01 15:41:47;;;;;;;5.55;1.07;;;19.30;94.80;;;;;;1915276;75;21094;-73
2023/01/01 15:44:38;;;;;;;3.00;0.90;;;19.30;94.80;;;;;;1888936;75;21078;-73
2023/01/01 15:47:30;;;;;;;3.62;1.15;;;19.20;95.00;;;;;;1894593;75;21542;-73
2023/01/01 15:50:26;;;;;;;6.05;1.45;;;19.20;94.60;;;;;;1892713;75;21380;-73
2023/01/01 15:53:20;;;;;;;5.60;1.80;;;18.90;99.90;;;;;;1889538;75;21163;-73
2023/01/01 15:56:13;;;;;;;5.53;1.60;;;18.30;99.90;;;;;;1895186;75;21656;-73
2023/01/01 15:59:07;;;;;;;6.62;2.20;;;17.50;99.90;;;;;;1895277;75;21110;-72
2023/01/01 16:02:15;;;;;;;6.03;2.30;;;17.00;99.90;;;;;;1899690;75;21094;-74
2023/01/01 16:05:14;;;;;;;4.28;1.52;;;16.60;99.90;;;;;;1898984;75;21153;-73
2023/01/01 16:08:06;;;;;;;7.05;2.15;;;16.40;99.90;;;;;;1887081;75;21137;-72
2023/01/01 16:10:57;;;;;;;6.25;2.00;;;16.20;99.90;;;;;;1906286;73;21416;-72
2023/01/01 16:13:49;;;;;;;6.00;2.17;;;16.10;99.90;;;;;;1883356;75;21129;-72
2023/01/01 16:16:42;;;;;;;7.20;2.33;;;16.00;99.90;;;;;;1894493;75;21136;-74
2023/01/01 16:19:34;;;;;;;5.05;1.85;;;15.80;99.90;;;;;;1895596;75;21157;-72
2023/01/01 16:22:25;;;;;;;6.60;1.87;;;15.70;99.90;;;;;;1880507;75;21142;-72
2023/01/01 16:25:19;;;;;;;9.03;2.70;;;15.70;99.90;;;;;;1897950;75;21139;-73
2023/01/01 16:28:12;;;;;;;9.20;2.27;;;15.60;99.90;;;;;;1897343;75;21109;-73
2023/01/01 16:31:03;;;;;;;4.90;2.08;;;15.70;99.90;;;;;;1908774;75;21593;-73
2023/01/01 16:33:56;;;;;;;5.30;1.80;;;15.70;99.90;;;;;;1903026;74;21648;-73
2023/01/01 16:36:47;;;;;;;6.72;1.92;;;15.70;99.90;;;;;;1909764;74;21037;-73
2023/01/01 16:39:38;;;;;;;7.28;2.50;;;15.80;99.90;;;;;;1902972;74;21098;-73
2023/01/01 16:42:30;;;;;;;4.90;2.00;;;16.00;99.90;;;;;;1872449;76;21162;-74
2023/01/01 23:36:28;;;;;;;7.47;1.50;;;18.10;68.40;;;;;;1926214;72;22671;-87
2023/01/01 23:42:06;;;;;;;9.08;1.50;;;18.00;68.40;;;;;;1939317;72;22181;-87
2023/01/01 23:45:05;;;;;;;6.47;1.25;;;18.00;68.50;;;;;;1888104;74;21142;-88
2023/01/01 23:48:02;;;;;;;6.73;1.60;;;18.00;68.70;;;;;;1891816;75;21107;-88
2023/01/01 23:51:01;;;;;;;4.83;1.40;;;18.00;68.30;;;;;;1870543;75;21161;-88
2023/01/01 23:53:53;;;;;;;7.35;1.17;;;18.00;67.90;;;;;;1887320;75;21124;-89
2023/01/01 23:56:46;;;;;;;6.45;1.47;;;18.00;67.40;;;;;;1901077;75;21425;-88
2023/01/01 23:59:53;;;;;;;6.12;1.60;;;17.80;67.90;;;;;;1871231;76;21884;-88
